sensor_id;sensor_type;location;lat;lon;timestamp;P1;durP1;ratioP1;P2;durP2;ratioP2
20699;SDS011;10511;51.232;9.420;2023-08-12T00:00:57;0.60;;;0.60;;
20699;SDS011;10511;51.232;9.420;2023-08-12T00:03:24;0.60;;;0.60;;
20699;SDS011;10511;51.232;9.420;2023-08-12T00:05:53;0.60;;;0.60;;
20699;SDS011;10511;51.232;9.420;2023-08-12T00:08:21;0.70;;;0.70;;
20699;SDS011;10511;51.232;9.420;2023-08-12T00:10:48;0.60;;;0.60;;
20699;SDS011;10511;51.232;9.420;2023-08-12T00:13:15;0.60;;;0.60;;
20699;SDS011;10511;51.232;9.420;2023-08-12T00:15:42;0.60;;;0.60;;
20699;SDS011;10511;51.232;9.420;2023-08-12T00:18:10;0.60;;;0.60;;
20699;SDS011;10511;51.232;9.420;2023-08-12T00:20:37;0.60;;;0.60;;
20699;SDS011;10511;51.232;9.420;2023-08-12T00:23:06;0.60;;;0.60;;
20699;SDS011;10511;51.232;9.420;2023-08-12T00:25:32;0.60;;;0.60;;
20699;SDS011;10511;51.232;9.420;2023-08-12T00:27:59;0.60;;;0.60;;
20699;SDS011;10511;51.232;9.420;2023-08-12T00:30:26;0.70;;;0.70;;
20699;SDS011;10511;51.232;9.420;2023-08-12T00:32:53;0.60;;;0.60;;
20699;SDS011;10511;51.232;9.420;2023-08-12T00:35:20;0.60;;;0.60;;
20699;SDS011;10511;51.232;9.420;2023-08-12T00:37:47;0.60;;;0.60;;
20699;SDS011;10511;51.232;9.420;2023-08-12T00:40:16;0.70;;;0.70;;
20699;SDS011;10511;51.232;9.420;2023-08-12T00:42:43;0.60;;;0.60;;
20699;SDS011;10511;51.232;9.420;2023-08-12T00:45:12;0.63;;;0.63;;
20699;SDS011;10511;51.232;9.420;2023-08-12T00:47:39;0.60;;;0.60;;
20699;SDS011;10511;51.232;9.420;2023-08-12T00:50:07;0.70;;;0.70;;
20699;SDS011;10511;51.232;9.420;2023-08-12T00:52:36;0.60;;;0.60;;
20699;SDS011;10511;51.232;9.420;2023-08-12T00:55:04;0.63;;;0.63;;
20699;SDS011;10511;51.232;9.420;2023-08-12T00:57:32;0.70;;;0.70;;
20699;SDS011;10511;51.232;9.420;2023-08-12T01:00:00;0.60;;;0.60;;
20699;SDS011;10511;51.232;9.420;2023-08-12T01:02:28;0.60;;;0.60;;
20699;SDS011;10511;51.232;9.420;2023-08-12T01:04:55;0.60;;;0.60;;
20699;SDS011;10511;51.232;9.420;2023-08-12T01:07:23;0.60;;;0.60;;
20699;SDS011;10511;51.232;9.420;2023-08-12T01:09:50;0.60;;;0.60;;
20699;SDS011;10511;51.232;9.420;2023-08-12T01:12:18;0.60;;;0.60;;
20699;SDS011;10511;51.232;9.420;2023-08-12T01:14:56;0.50;;;0.50;;
20699;SDS011;10511;51.232;9.420;2023-08-12T01:17:28;0.60;;;0.60;;
20699;SDS011;10511;51.232;9.420;2023-08-12T01:19:57;0.60;;;0.60;;
20699;SDS011;10511;51.232;9.420;2023-08-12T01:22:26;0.70;;;0.70;;
20699;SDS011;10511;51.232;9.420;2023-08-12T01:24:58;0.60;;;0.60;;
20699;SDS011;10511;51.232;9.420;2023-08-12T01:27:25;0.60;;;0.60;;
20699;SDS011;10511;51.232;9.420;2023-08-12T01:29:52;0.60;;;0.60;;
20699;SDS011;10511;51.232;9.420;2023-08-12T01:32:22;0.60;;;0.60;;
20699;SDS011;10511;51.232;9.420;2023-08-12T01:34:53;0.60;;;0.60;;
20699;SDS011;10511;51.232;9.420;2023-08-12T01:37:24;0.60;;;0.60;;
20699;SDS011;10511;51.232;9.420;2023-08-12T01:39:56;0.60;;;0.60;;
20699;SDS011;10511;51.232;9.420;2023-08-12T01:42:29;0.70;;;0.70;;
20699;SDS011;10511;51.232;9.420;2023-08-12T01:44:57;0.60;;;0.60;;
20699;SDS011;10511;51.232;9.420;2023-08-12T01:47:25;0.60;;;0.60;;
20699;SDS011;10511;51.232;9.420;2023-08-12T01:49:52;0.70;;;0.70;;
20699;SDS011;10511;51.232;9.420;2023-08-12T01:52:19;0.60;;;0.60;;
20699;SDS011;10511;51.232;9.420;2023-08-12T01:54:46;0.60;;;0.60;;
20699;SDS011;10511;51.232;9.420;2023-08-12T01:57:14;0.70;;;0.70;;
20699;SDS011;10511;51.232;9.420;2023-08-12T01:59:41;0.60;;;0.60;;
20699;SDS011;10511;51.232;9.420;2023-08-12T02:02:09;0.60;;;0.60;;
20699;SDS011;10511;51.232;9.420;2023-08-12T02:04:36;0.60;;;0.60;;
20699;SDS011;10511;51.232;9.420;2023-08-12T02:07:03;0.70;;;0.70;;
20699;SDS011;10511;51.232;9.420;2023-08-12T02:09:30;0.60;;;0.60;;
20699;SDS011;10511;51.232;9.420;2023-08-12T02:11:57;0.63;;;0.63;;
20699;SDS011;10511;51.232;9.420;2023-08-12T02:14:26;0.70;;;0.70;;
20699;SDS011;10511;51.232;9.420;2023-08-12T02:16:53;0.60;;;0.60;;
20699;SDS011;10511;51.232;9.420;2023-08-12T02:19:20;0.70;;;0.70;;
20699;SDS011;10511;51.232;9.420;2023-08-12T02:21:46;0.70;;;0.70;;
20699;SDS011;10511;51.232;9.420;2023-08-12T02:24:12;0.70;;;0.70;;
20699;SDS011;10511;51.232;9.420;2023-08-12T02:26:39;0.70;;;0.70;;
20699;SDS011;10511;51.232;9.420;2023-08-12T02:29:06;0.60;;;0.60;;
20699;SDS011;10511;51.232;9.420;2023-08-12T02:31:35;0.70;;;0.70;;
20699;SDS011;10511;51.232;9.420;2023-08-12T02:34:02;0.70;;;0.70;;
20699;SDS011;10511;51.232;9.420;2023-08-12T02:36:29;0.70;;;0.70;;
20699;SDS011;10511;51.232;9.420;2023-08-12T02:38:56;0.70;;;0.70;;
20699;SDS011;10511;51.232;9.420;2023-08-12T02:41:22;0.63;;;0.63;;
20699;SDS011;10511;51.232;9.420;2023-08-12T02:43:49;0.60;;;0.60;;
20699;SDS011;10511;51.232;9.420;2023-08-12T02:46:16;0.60;;;0.60;;
20699;SDS011;10511;51.232;9.420;2023-08-12T02:48:45;0.70;;;0.70;;
20699;SDS011;10511;51.232;9.420;2023-08-12T02:51:13;0.60;;;0.60;;
20699;SDS011;10511;51.232;9.420;2023-08-12T02:53:40;0.60;;;0.60;;
20699;SDS011;10511;51.232;9.420;2023-08-12T02:56:07;0.60;;;0.60;;
20699;SDS011;10511;51.232;9.420;2023-08-12T02:58:34;0.67;;;0.67;;
20699;SDS011;10511;51.232;9.420;2023-08-12T03:01:02;0.60;;;0.60;;
20699;SDS011;10511;51.232;9.420;2023-08-12T03:03:30;0.60;;;0.60;;
20699;SDS011;10511;51.232;9.420;2023-08-12T03:05:58;0.70;;;0.70;;
20699;SDS011;10511;51.232;9.420;2023-08-12T03:08:25;0.60;;;0.60;;
20699;SDS011;10511;51.232;9.420;2023-08-12T03:10:57;0.70;;;0.70;;
20699;SDS011;10511;51.232;9.420;2023-08-12T03:13:25;0.70;;;0.70;;
20699;SDS011;10511;51.232;9.420;2023-08-12T03:15:52;0.60;;;0.60;;
20699;SDS011;10511;51.232;9.420;2023-08-12T03:18:19;0.70;;;0.70;;
20699;SDS011;10511;51.232;9.420;2023-08-12T03:20:46;0.70;;;0.70;;
20699;SDS011;10511;51.232;9.420;2023-08-12T03:23:15;0.70;;;0.70;;
20699;SDS011;10511;51.232;9.420;2023-08-12T03:25:41;0.70;;;0.70;;
20699;SDS011;10511;51.232;9.420;2023-08-12T03:28:09;0.70;;;0.70;;
20699;SDS011;10511;51.232;9.420;2023-08-12T03:30:35;0.70;;;0.70;;
20699;SDS011;10511;51.232;9.420;2023-08-12T03:33:03;0.70;;;0.70;;
20699;SDS011;10511;51.232;9.420;2023-08-12T03:35:30;0.60;;;0.60;;
20699;SDS011;10511;51.232;9.420;2023-08-12T03:37:57;0.70;;;0.70;;
20699;SDS011;10511;51.232;9.420;2023-08-12T03:40:25;0.70;;;0.70;;
20699;SDS011;10511;51.232;9.420;2023-08-12T03:42:52;0.70;;;0.70;;
20699;SDS011;10511;51.232;9.420;2023-08-12T03:45:19;0.70;;;0.70;;
20699;SDS011;10511;51.232;9.420;2023-08-12T03:47:46;0.70;;;0.70;;
20699;SDS011;10511;51.232;9.420;2023-08-12T03:50:13;0.70;;;0.70;;
20699;SDS011;10511;51.232;9.420;2023-08-12T03:52:40;0.70;;;0.70;;
20699;SDS011;10511;51.232;9.420;2023-08-12T03:55:07;0.80;;;0.80;;
20699;SDS011;10511;51.232;9.420;2023-08-12T03:57:36;0.70;;;0.70;;
20699;SDS011;10511;51.232;9.420;2023-08-12T04:00:03;0.70;;;0.70;;
20699;SDS011;10511;51.232;9.420;2023-08-12T04:02:33;0.70;;;0.70;;
20699;SDS011;10511;51.232;9.420;2023-08-12T04:05:00;0.70;;;0.70;;
20699;SDS011;10511;51.232;9.420;2023-08-12T04:07:27;0.70;;;0.70;;
20699;SDS011;10511;51.232;9.420;2023-08-12T04:09:54;0.70;;;0.70;;
20699;SDS011;10511;51.232;9.420;2023-08-12T04:12:21;0.80;;;0.80;;
20699;SDS011;10511;51.232;9.420;2023-08-12T04:14:50;0.73;;;0.73;;
20699;SDS011;10511;51.232;9.420;2023-08-12T04:17:16;0.77;;;0.77;;
20699;SDS011;10511;51.232;9.420;2023-08-12T04:19:43;0.60;;;0.60;;
20699;SDS011;10511;51.232;9.420;2023-08-12T04:22:10;0.70;;;0.70;;
20699;SDS011;10511;51.232;9.420;2023-08-12T04:24:37;0.60;;;0.60;;
20699;SDS011;10511;51.232;9.420;2023-08-12T04:27:04;0.60;;;0.60;;
20699;SDS011;10511;51.232;9.420;2023-08-12T04:29:31;0.70;;;0.70;;
20699;SDS011;10511;51.232;9.420;2023-08-12T04:31:59;0.60;;;0.60;;
20699;SDS011;10511;51.232;9.420;2023-08-12T04:34:26;0.70;;;0.70;;
20699;SDS011;10511;51.232;9.420;2023-08-12T04:36:53;0.60;;;0.60;;
20699;SDS011;10511;51.232;9.420;2023-08-12T04:39:20;0.70;;;0.70;;
20699;SDS011;10511;51.232;9.420;2023-08-12T04:41:48;0.70;;;0.70;;
20699;SDS011;10511;51.232;9.420;2023-08-12T04:44:15;0.70;;;0.70;;
20699;SDS011;10511;51.232;9.420;2023-08-12T04:46:42;0.70;;;0.70;;
20699;SDS011;10511;51.232;9.420;2023-08-12T04:49:10;0.70;;;0.70;;
20699;SDS011;10511;51.232;9.420;2023-08-12T04:51:37;0.70;;;0.70;;
20699;SDS011;10511;51.232;9.420;2023-08-12T04:54:04;0.70;;;0.70;;
20699;SDS011;10511;51.232;9.420;2023-08-12T04:56:32;0.60;;;0.60;;
20699;SDS011;10511;51.232;9.420;2023-08-12T04:58:59;0.70;;;0.70;;
20699;SDS011;10511;51.232;9.420;2023-08-12T05:01:26;0.70;;;0.70;;
20699;SDS011;10511;51.232;9.420;2023-08-12T05:03:53;0.63;;;0.63;;
20699;SDS011;10511;51.232;9.420;2023-08-12T05:06:21;0.60;;;0.60;;
20699;SDS011;10511;51.232;9.420;2023-08-12T05:08:49;0.60;;;0.60;;
20699;SDS011;10511;51.232;9.420;2023-08-12T05:11:16;0.80;;;0.80;;
20699;SDS011;10511;51.232;9.420;2023-08-12T05:13:43;0.70;;;0.70;;
20699;SDS011;10511;51.232;9.420;2023-08-12T05:16:10;0.60;;;0.60;;
20699;SDS011;10511;51.232;9.420;2023-08-12T05:18:38;0.60;;;0.60;;
20699;SDS011;10511;51.232;9.420;2023-08-12T05:21:05;0.70;;;0.70;;
20699;SDS011;10511;51.232;9.420;2023-08-12T05:23:34;0.70;;;0.70;;
20699;SDS011;10511;51.232;9.420;2023-08-12T05:26:01;0.70;;;0.70;;
20699;SDS011;10511;51.232;9.420;2023-08-12T05:28:28;0.70;;;0.70;;
20699;SDS011;10511;51.232;9.420;2023-08-12T05:30:55;0.70;;;0.70;;
20699;SDS011;10511;51.232;9.420;2023-08-12T05:33:22;0.70;;;0.70;;
20699;SDS011;10511;51.232;9.420;2023-08-12T05:35:49;0.67;;;0.67;;
20699;SDS011;10511;51.232;9.420;2023-08-12T05:38:19;0.70;;;0.70;;
20699;SDS011;10511;51.232;9.420;2023-08-12T05:40:53;0.70;;;0.70;;
20699;SDS011;10511;51.232;9.420;2023-08-12T05:43:21;0.70;;;0.70;;
20699;SDS011;10511;51.232;9.420;2023-08-12T05:45:50;0.60;;;0.60;;
20699;SDS011;10511;51.232;9.420;2023-08-12T05:48:19;0.60;;;0.60;;
20699;SDS011;10511;51.232;9.420;2023-08-12T05:50:49;0.60;;;0.60;;
20699;SDS011;10511;51.232;9.420;2023-08-12T05:53:17;0.70;;;0.70;;
20699;SDS011;10511;51.232;9.420;2023-08-12T05:55:44;0.70;;;0.70;;
20699;SDS011;10511;51.232;9.420;2023-08-12T05:58:12;0.70;;;0.70;;
20699;SDS011;10511;51.232;9.420;2023-08-12T06:00:39;0.70;;;0.70;;
20699;SDS011;10511;51.232;9.420;2023-08-12T06:03:10;0.60;;;0.60;;
20699;SDS011;10511;51.232;9.420;2023-08-12T06:05:37;0.60;;;0.60;;
20699;SDS011;10511;51.232;9.420;2023-08-12T06:08:04;0.70;;;0.70;;
20699;SDS011;10511;51.232;9.420;2023-08-12T06:10:32;0.70;;;0.70;;
20699;SDS011;10511;51.232;9.420;2023-08-12T06:12:59;0.70;;;0.70;;
20699;SDS011;10511;51.232;9.420;2023-08-12T06:15:28;0.70;;;0.70;;
20699;SDS011;10511;51.232;9.420;2023-08-12T06:17:55;0.70;;;0.70;;
20699;SDS011;10511;51.232;9.420;2023-08-12T06:20:22;0.77;;;0.77;;
20699;SDS011;10511;51.232;9.420;2023-08-12T06:22:50;0.70;;;0.70;;
20699;SDS011;10511;51.232;9.420;2023-08-12T06:25:17;0.70;;;0.70;;
20699;SDS011;10511;51.232;9.420;2023-08-12T06:27:44;0.70;;;0.70;;
20699;SDS011;10511;51.232;9.420;2023-08-12T06:30:12;0.70;;;0.70;;
20699;SDS011;10511;51.232;9.420;2023-08-12T06:32:41;0.70;;;0.70;;
20699;SDS011;10511;51.232;9.420;2023-08-12T06:35:08;0.70;;;0.70;;
20699;SDS011;10511;51.232;9.420;2023-08-12T06:37:35;0.80;;;0.80;;
20699;SDS011;10511;51.232;9.420;2023-08-12T06:40:02;0.70;;;0.70;;
20699;SDS011;10511;51.232;9.420;2023-08-12T06:42:30;0.70;;;0.70;;
20699;SDS011;10511;51.232;9.420;2023-08-12T06:44:57;0.70;;;0.70;;
20699;SDS011;10511;51.232;9.420;2023-08-12T06:47:25;0.70;;;0.70;;
20699;SDS011;10511;51.232;9.420;2023-08-12T06:49:56;0.70;;;0.70;;
20699;SDS011;10511;51.232;9.420;2023-08-12T06:52:23;0.70;;;0.70;;
20699;SDS011;10511;51.232;9.420;2023-08-12T06:54:49;0.70;;;0.70;;
20699;SDS011;10511;51.232;9.420;2023-08-12T06:57:16;0.70;;;0.70;;
20699;SDS011;10511;51.232;9.420;2023-08-12T06:59:43;0.60;;;0.60;;
20699;SDS011;10511;51.232;9.420;2023-08-12T07:02:11;0.70;;;0.70;;
20699;SDS011;10511;51.232;9.420;2023-08-12T07:04:38;0.80;;;0.80;;
20699;SDS011;10511;51.232;9.420;2023-08-12T07:07:07;0.63;;;0.63;;
20699;SDS011;10511;51.232;9.420;2023-08-12T07:09:33;0.70;;;0.70;;
20699;SDS011;10511;51.232;9.420;2023-08-12T07:12:00;0.60;;;0.60;;
20699;SDS011;10511;51.232;9.420;2023-08-12T07:14:28;0.60;;;0.60;;
20699;SDS011;10511;51.232;9.420;2023-08-12T07:16:55;0.70;;;0.70;;
20699;SDS011;10511;51.232;9.420;2023-08-12T07:19:22;0.60;;;0.60;;
20699;SDS011;10511;51.232;9.420;2023-08-12T07:21:49;0.70;;;0.70;;
20699;SDS011;10511;51.232;9.420;2023-08-12T07:24:17;0.67;;;0.67;;
20699;SDS011;10511;51.232;9.420;2023-08-12T07:26:44;0.70;;;0.70;;
20699;SDS011;10511;51.232;9.420;2023-08-12T07:29:11;0.60;;;0.60;;
20699;SDS011;10511;51.232;9.420;2023-08-12T07:31:40;0.70;;;0.70;;
20699;SDS011;10511;51.232;9.420;2023-08-12T07:34:07;0.60;;;0.60;;
20699;SDS011;10511;51.232;9.420;2023-08-12T07:36:38;0.70;;;0.70;;
20699;SDS011;10511;51.232;9.420;2023-08-12T07:39:05;0.60;;;0.60;;
20699;SDS011;10511;51.232;9.420;2023-08-12T07:41:33;0.60;;;0.60;;
20699;SDS011;10511;51.232;9.420;2023-08-12T07:44:00;0.70;;;0.70;;
20699;SDS011;10511;51.232;9.420;2023-08-12T07:46:27;0.70;;;0.70;;
20699;SDS011;10511;51.232;9.420;2023-08-12T07:48:54;0.70;;;0.70;;
20699;SDS011;10511;51.232;9.420;2023-08-12T07:51:21;0.80;;;0.80;;
20699;SDS011;10511;51.232;9.420;2023-08-12T07:53:48;0.70;;;0.70;;
20699;SDS011;10511;51.232;9.420;2023-08-12T07:56:15;0.60;;;0.60;;
20699;SDS011;10511;51.232;9.420;2023-08-12T07:58:44;0.60;;;0.60;;
20699;SDS011;10511;51.232;9.420;2023-08-12T08:01:11;0.70;;;0.70;;
20699;SDS011;10511;51.232;9.420;2023-08-12T08:03:38;0.60;;;0.60;;
20699;SDS011;10511;51.232;9.420;2023-08-12T08:06:05;0.60;;;0.60;;
20699;SDS011;10511;51.232;9.420;2023-08-12T08:08:33;0.60;;;0.60;;
20699;SDS011;10511;51.232;9.420;2023-08-12T08:11:00;0.70;;;0.70;;
20699;SDS011;10511;51.232;9.420;2023-08-12T08:13:27;0.60;;;0.60;;
20699;SDS011;10511;51.232;9.420;2023-08-12T08:15:55;0.70;;;0.70;;
20699;SDS011;10511;51.232;9.420;2023-08-12T08:18:22;0.70;;;0.70;;
20699;SDS011;10511;51.232;9.420;2023-08-12T08:20:49;0.60;;;0.60;;
20699;SDS011;10511;51.232;9.420;2023-08-12T08:23:16;0.60;;;0.60;;
20699;SDS011;10511;51.232;9.420;2023-08-12T08:25:43;0.63;;;0.63;;
20699;SDS011;10511;51.232;9.420;2023-08-12T08:28:10;0.60;;;0.60;;
20699;SDS011;10511;51.232;9.420;2023-08-12T08:30:37;0.60;;;0.60;;
20699;SDS011;10511;51.232;9.420;2023-08-12T08:33:06;0.60;;;0.60;;
20699;SDS011;10511;51.232;9.420;2023-08-12T08:35:33;0.57;;;0.57;;
20699;SDS011;10511;51.232;9.420;2023-08-12T08:38:00;0.60;;;0.60;;
20699;SDS011;10511;51.232;9.420;2023-08-12T08:40:27;0.60;;;0.60;;
20699;SDS011;10511;51.232;9.420;2023-08-12T08:42:54;0.60;;;0.60;;
20699;SDS011;10511;51.232;9.420;2023-08-12T08:45:28;0.60;;;0.60;;
20699;SDS011;10511;51.232;9.420;2023-08-12T08:47:58;0.60;;;0.60;;
20699;SDS011;10511;51.232;9.420;2023-08-12T08:50:28;0.60;;;0.60;;
20699;SDS011;10511;51.232;9.420;2023-08-12T08:52:56;0.60;;;0.60;;
20699;SDS011;10511;51.232;9.420;2023-08-12T08:55:23;0.60;;;0.60;;
20699;SDS011;10511;51.232;9.420;2023-08-12T08:57:50;0.60;;;0.60;;
20699;SDS011;10511;51.232;9.420;2023-08-12T09:00:18;0.53;;;0.53;;
20699;SDS011;10511;51.232;9.420;2023-08-12T09:02:46;0.60;;;0.60;;
20699;SDS011;10511;51.232;9.420;2023-08-12T09:05:14;0.50;;;0.50;;
20699;SDS011;10511;51.232;9.420;2023-08-12T09:07:43;0.60;;;0.60;;
20699;SDS011;10511;51.232;9.420;2023-08-12T09:10:11;0.60;;;0.60;;
20699;SDS011;10511;51.232;9.420;2023-08-12T09:12:39;0.60;;;0.60;;
20699;SDS011;10511;51.232;9.420;2023-08-12T09:15:06;0.60;;;0.60;;
20699;SDS011;10511;51.232;9.420;2023-08-12T09:17:34;0.60;;;0.60;;
20699;SDS011;10511;51.232;9.420;2023-08-12T09:20:01;0.60;;;0.60;;
20699;SDS011;10511;51.232;9.420;2023-08-12T09:22:32;0.57;;;0.57;;
20699;SDS011;10511;51.232;9.420;2023-08-12T09:25:07;0.60;;;0.60;;
20699;SDS011;10511;51.232;9.420;2023-08-12T09:27:35;0.60;;;0.60;;
20699;SDS011;10511;51.232;9.420;2023-08-12T09:30:03;0.60;;;0.60;;
20699;SDS011;10511;51.232;9.420;2023-08-12T09:32:31;0.60;;;0.60;;
20699;SDS011;10511;51.232;9.420;2023-08-12T09:35:02;0.50;;;0.50;;
20699;SDS011;10511;51.232;9.420;2023-08-12T09:37:33;0.50;;;0.50;;
20699;SDS011;10511;51.232;9.420;2023-08-12T09:40:00;0.70;;;0.70;;
20699;SDS011;10511;51.232;9.420;2023-08-12T09:42:32;0.50;;;0.50;;
20699;SDS011;10511;51.232;9.420;2023-08-12T09:44:59;0.57;;;0.57;;
20699;SDS011;10511;51.232;9.420;2023-08-12T09:47:27;0.60;;;0.60;;
20699;SDS011;10511;51.232;9.420;2023-08-12T09:49:54;0.60;;;0.60;;
20699;SDS011;10511;51.232;9.420;2023-08-12T09:52:21;0.60;;;0.60;;
20699;SDS011;10511;51.232;9.420;2023-08-12T09:54:48;0.60;;;0.60;;
20699;SDS011;10511;51.232;9.420;2023-08-12T09:57:18;0.53;;;0.53;;
20699;SDS011;10511;51.232;9.420;2023-08-12T09:59:49;0.60;;;0.60;;
20699;SDS011;10511;51.232;9.420;2023-08-12T10:02:18;0.60;;;0.60;;
20699;SDS011;10511;51.232;9.420;2023-08-12T10:04:46;0.60;;;0.60;;
20699;SDS011;10511;51.232;9.420;2023-08-12T10:07:21;0.60;;;0.60;;
20699;SDS011;10511;51.232;9.420;2023-08-12T10:09:49;0.60;;;0.60;;
20699;SDS011;10511;51.232;9.420;2023-08-12T10:12:16;0.60;;;0.60;;
20699;SDS011;10511;51.232;9.420;2023-08-12T10:14:44;0.60;;;0.60;;
20699;SDS011;10511;51.232;9.420;2023-08-12T10:17:13;0.60;;;0.60;;
20699;SDS011;10511;51.232;9.420;2023-08-12T10:19:43;0.60;;;0.60;;
20699;SDS011;10511;51.232;9.420;2023-08-12T10:22:10;0.50;;;0.50;;
20699;SDS011;10511;51.232;9.420;2023-08-12T10:24:39;0.50;;;0.50;;
20699;SDS011;10511;51.232;9.420;2023-08-12T10:27:09;0.50;;;0.50;;
20699;SDS011;10511;51.232;9.420;2023-08-12T10:29:38;0.60;;;0.60;;
20699;SDS011;10511;51.232;9.420;2023-08-12T10:32:05;0.60;;;0.60;;
20699;SDS011;10511;51.232;9.420;2023-08-12T10:34:33;0.50;;;0.50;;
20699;SDS011;10511;51.232;9.420;2023-08-12T10:37:01;0.60;;;0.60;;
20699;SDS011;10511;51.232;9.420;2023-08-12T10:39:29;0.60;;;0.60;;
20699;SDS011;10511;51.232;9.420;2023-08-12T10:41:58;0.60;;;0.60;;
20699;SDS011;10511;51.232;9.420;2023-08-12T10:44:26;0.60;;;0.60;;
20699;SDS011;10511;51.232;9.420;2023-08-12T10:46:53;0.60;;;0.60;;
20699;SDS011;10511;51.232;9.420;2023-08-12T10:49:21;0.50;;;0.50;;
20699;SDS011;10511;51.232;9.420;2023-08-12T10:51:50;0.60;;;0.60;;
20699;SDS011;10511;51.232;9.420;2023-08-12T10:54:22;0.60;;;0.60;;
20699;SDS011;10511;51.232;9.420;2023-08-12T10:57:07;0.60;;;0.60;;
20699;SDS011;10511;51.232;9.420;2023-08-12T10:59:50;0.60;;;0.60;;
20699;SDS011;10511;51.232;9.420;2023-08-12T11:02:19;0.60;;;0.60;;
20699;SDS011;10511;51.232;9.420;2023-08-12T11:04:48;0.50;;;0.50;;
20699;SDS011;10511;51.232;9.420;2023-08-12T11:07:19;0.60;;;0.60;;
20699;SDS011;10511;51.232;9.420;2023-08-12T11:09:50;0.60;;;0.60;;
20699;SDS011;10511;51.232;9.420;2023-08-12T11:12:18;0.50;;;0.50;;
20699;SDS011;10511;51.232;9.420;2023-08-12T11:14:57;0.50;;;0.50;;
20699;SDS011;10511;51.232;9.420;2023-08-12T11:17:29;0.50;;;0.50;;
20699;SDS011;10511;51.232;9.420;2023-08-12T11:20:00;0.50;;;0.50;;
20699;SDS011;10511;51.232;9.420;2023-08-12T11:22:30;0.50;;;0.50;;
20699;SDS011;10511;51.232;9.420;2023-08-12T11:24:58;0.50;;;0.50;;
20699;SDS011;10511;51.232;9.420;2023-08-12T11:27:26;0.60;;;0.60;;
20699;SDS011;10511;51.232;9.420;2023-08-12T11:29:53;0.50;;;0.50;;
20699;SDS011;10511;51.232;9.420;2023-08-12T11:32:20;0.50;;;0.50;;
20699;SDS011;10511;51.232;9.420;2023-08-12T11:34:47;0.50;;;0.50;;
20699;SDS011;10511;51.232;9.420;2023-08-12T11:37:14;0.50;;;0.50;;
20699;SDS011;10511;51.232;9.420;2023-08-12T11:39:43;0.50;;;0.50;;
20699;SDS011;10511;51.232;9.420;2023-08-12T11:42:10;0.60;;;0.60;;
20699;SDS011;10511;51.232;9.420;2023-08-12T11:44:37;0.60;;;0.60;;
20699;SDS011;10511;51.232;9.420;2023-08-12T11:47:06;0.60;;;0.60;;
20699;SDS011;10511;51.232;9.420;2023-08-12T11:49:33;0.50;;;0.50;;
20699;SDS011;10511;51.232;9.420;2023-08-12T11:52:00;0.50;;;0.50;;
20699;SDS011;10511;51.232;9.420;2023-08-12T11:54:28;0.60;;;0.60;;
20699;SDS011;10511;51.232;9.420;2023-08-12T11:56:57;0.60;;;0.60;;
20699;SDS011;10511;51.232;9.420;2023-08-12T11:59:24;0.60;;;0.60;;
20699;SDS011;10511;51.232;9.420;2023-08-12T12:01:52;0.60;;;0.60;;
20699;SDS011;10511;51.232;9.420;2023-08-12T12:04:21;0.60;;;0.60;;
20699;SDS011;10511;51.232;9.420;2023-08-12T12:06:48;0.60;;;0.60;;
20699;SDS011;10511;51.232;9.420;2023-08-12T12:09:15;0.60;;;0.60;;
20699;SDS011;10511;51.232;9.420;2023-08-12T12:11:44;0.60;;;0.60;;
20699;SDS011;10511;51.232;9.420;2023-08-12T12:14:12;0.60;;;0.60;;
20699;SDS011;10511;51.232;9.420;2023-08-12T12:16:40;0.60;;;0.60;;
20699;SDS011;10511;51.232;9.420;2023-08-12T12:19:13;0.50;;;0.50;;
20699;SDS011;10511;51.232;9.420;2023-08-12T12:21:42;0.50;;;0.50;;
20699;SDS011;10511;51.232;9.420;2023-08-12T12:24:11;0.50;;;0.50;;
20699;SDS011;10511;51.232;9.420;2023-08-12T12:26:38;0.50;;;0.50;;
20699;SDS011;10511;51.232;9.420;2023-08-12T12:29:06;0.60;;;0.60;;
20699;SDS011;10511;51.232;9.420;2023-08-12T12:31:41;0.57;;;0.57;;
20699;SDS011;10511;51.232;9.420;2023-08-12T12:34:08;0.60;;;0.60;;
20699;SDS011;10511;51.232;9.420;2023-08-12T12:36:36;0.50;;;0.50;;
20699;SDS011;10511;51.232;9.420;2023-08-12T12:39:04;0.60;;;0.60;;
20699;SDS011;10511;51.232;9.420;2023-08-12T12:41:31;0.57;;;0.57;;
20699;SDS011;10511;51.232;9.420;2023-08-12T12:43:59;0.60;;;0.60;;
20699;SDS011;10511;51.232;9.420;2023-08-12T12:46:26;0.60;;;0.60;;
20699;SDS011;10511;51.232;9.420;2023-08-12T12:48:54;0.50;;;0.50;;
20699;SDS011;10511;51.232;9.420;2023-08-12T12:51:21;0.50;;;0.50;;
20699;SDS011;10511;51.232;9.420;2023-08-12T12:53:48;0.50;;;0.50;;
20699;SDS011;10511;51.232;9.420;2023-08-12T12:56:15;0.50;;;0.50;;
20699;SDS011;10511;51.232;9.420;2023-08-12T12:58:42;0.50;;;0.50;;
20699;SDS011;10511;51.232;9.420;2023-08-12T13:01:09;0.60;;;0.60;;
20699;SDS011;10511;51.232;9.420;2023-08-12T13:03:36;0.50;;;0.50;;
20699;SDS011;10511;51.232;9.420;2023-08-12T13:06:04;0.50;;;0.50;;
20699;SDS011;10511;51.232;9.420;2023-08-12T13:08:31;0.50;;;0.50;;
20699;SDS011;10511;51.232;9.420;2023-08-12T13:10:58;0.50;;;0.50;;
20699;SDS011;10511;51.232;9.420;2023-08-12T13:13:25;0.50;;;0.50;;
20699;SDS011;10511;51.232;9.420;2023-08-12T13:15:52;0.53;;;0.53;;
20699;SDS011;10511;51.232;9.420;2023-08-12T13:18:19;0.50;;;0.50;;
20699;SDS011;10511;51.232;9.420;2023-08-12T13:20:46;0.50;;;0.50;;
20699;SDS011;10511;51.232;9.420;2023-08-12T13:23:15;0.50;;;0.50;;
20699;SDS011;10511;51.232;9.420;2023-08-12T13:25:42;0.57;;;0.57;;
20699;SDS011;10511;51.232;9.420;2023-08-12T13:28:09;0.50;;;0.50;;
20699;SDS011;10511;51.232;9.420;2023-08-12T13:30:36;0.50;;;0.50;;
20699;SDS011;10511;51.232;9.420;2023-08-12T13:33:03;0.50;;;0.50;;
20699;SDS011;10511;51.232;9.420;2023-08-12T13:35:31;0.50;;;0.50;;
20699;SDS011;10511;51.232;9.420;2023-08-12T13:37:58;0.50;;;0.50;;
20699;SDS011;10511;51.232;9.420;2023-08-12T13:40:26;0.50;;;0.50;;
20699;SDS011;10511;51.232;9.420;2023-08-12T13:42:53;0.60;;;0.60;;
20699;SDS011;10511;51.232;9.420;2023-08-12T13:45:20;0.50;;;0.50;;
20699;SDS011;10511;51.232;9.420;2023-08-12T13:47:49;0.50;;;0.50;;
20699;SDS011;10511;51.232;9.420;2023-08-12T13:50:16;0.50;;;0.50;;
20699;SDS011;10511;51.232;9.420;2023-08-12T13:52:44;0.60;;;0.60;;
20699;SDS011;10511;51.232;9.420;2023-08-12T13:55:12;0.50;;;0.50;;
20699;SDS011;10511;51.232;9.420;2023-08-12T13:57:41;0.50;;;0.50;;
20699;SDS011;10511;51.232;9.420;2023-08-12T14:00:14;0.50;;;0.50;;
20699;SDS011;10511;51.232;9.420;2023-08-12T14:02:49;0.50;;;0.50;;
20699;SDS011;10511;51.232;9.420;2023-08-12T14:05:16;0.50;;;0.50;;
20699;SDS011;10511;51.232;9.420;2023-08-12T14:07:43;0.50;;;0.50;;
20699;SDS011;10511;51.232;9.420;2023-08-12T14:10:10;0.50;;;0.50;;
20699;SDS011;10511;51.232;9.420;2023-08-12T14:12:37;0.60;;;0.60;;
20699;SDS011;10511;51.232;9.420;2023-08-12T14:15:06;0.50;;;0.50;;
20699;SDS011;10511;51.232;9.420;2023-08-12T14:17:33;0.53;;;0.53;;
20699;SDS011;10511;51.232;9.420;2023-08-12T14:20:00;0.60;;;0.60;;
20699;SDS011;10511;51.232;9.420;2023-08-12T14:22:30;0.50;;;0.50;;
20699;SDS011;10511;51.232;9.420;2023-08-12T14:24:57;0.50;;;0.50;;
20699;SDS011;10511;51.232;9.420;2023-08-12T14:27:24;0.50;;;0.50;;
20699;SDS011;10511;51.232;9.420;2023-08-12T14:29:51;0.50;;;0.50;;
20699;SDS011;10511;51.232;9.420;2023-08-12T14:32:19;0.40;;;0.40;;
20699;SDS011;10511;51.232;9.420;2023-08-12T14:34:46;0.40;;;0.40;;
20699;SDS011;10511;51.232;9.420;2023-08-12T14:37:13;0.50;;;0.50;;
20699;SDS011;10511;51.232;9.420;2023-08-12T14:39:40;0.50;;;0.50;;
20699;SDS011;10511;51.232;9.420;2023-08-12T14:42:07;0.50;;;0.50;;
20699;SDS011;10511;51.232;9.420;2023-08-12T14:44:35;0.50;;;0.50;;
20699;SDS011;10511;51.232;9.420;2023-08-12T14:47:02;0.50;;;0.50;;
20699;SDS011;10511;51.232;9.420;2023-08-12T14:49:31;0.40;;;0.40;;
20699;SDS011;10511;51.232;9.420;2023-08-12T14:51:58;0.40;;;0.40;;